Time;durP1;ratioP1;P1;durP2;ratioP2;P2;SDS_P1;SDS_P2;PMS_P1;PMS_P2;Temp;Humidity;BMP_temperature;BMP_pressure;BME280_temperature;BME280_humidity;BME280_pressure;Samples;Min_cycle;Max_cycle;Signal;HPM_P1;HPM_P2
2022/10/26 00:00:39;;;;;;;8.55;1.85;;;16.10;99.90;;;;;;5076102;28;20122;-84
2022/10/26 00:03:04;;;;;;;5.47;1.80;;;16.30;99.90;;;;;;5090004;28;20060;-77
2022/10/26 00:05:33;;;;;;;6.50;1.90;;;16.40;99.90;;;;;;5075968;28;20094;-81
2022/10/26 00:07:59;;;;;;;7.13;2.05;;;16.40;99.90;;;;;;5075484;28;20044;-82
2022/10/26 00:10:25;;;;;;;6.18;1.73;;;16.30;99.90;;;;;;5077836;28;20044;-77
2022/10/26 00:12:51;;;;;;;5.35;1.90;;;16.30;99.90;;;;;;5088804;28;20043;-77
2022/10/26 00:15:18;;;;;;;4.88;1.40;;;16.40;99.90;;;;;;5077092;28;20036;-85
2022/10/26 00:17:44;;;;;;;8.57;1.60;;;16.50;99.90;;;;;;5076411;28;20052;-77
2022/10/26 00:20:11;;;;;;;6.82;1.42;;;16.40;99.90;;;;;;5076385;28;20491;-87
2022/10/26 00:22:37;;;;;;;5.38;1.40;;;16.40;99.90;;;;;;5077295;28;20157;-88
2022/10/26 00:25:04;;;;;;;4.25;2.22;;;16.30;99.90;;;;;;5076543;28;20119;-78
2022/10/26 00:27:29;;;;;;;8.65;1.95;;;16.00;99.90;;;;;;5075261;28;20036;-85
2022/10/26 00:29:55;;;;;;;5.55;1.85;;;16.00;99.90;;;;;;5076495;28;20089;-78
2022/10/26 00:32:21;;;;;;;3.50;1.50;;;16.10;99.90;;;;;;5080045;28;20043;-86
2022/10/26 00:34:47;;;;;;;6.22;1.67;;;16.00;99.90;;;;;;5095012;28;20044;-85
2022/10/26 00:37:12;;;;;;;7.93;2.17;;;16.10;99.90;;;;;;5096254;28;20059;-83
2022/10/26 00:39:38;;;;;;;6.93;2.55;;;16.40;99.90;;;;;;5094688;28;20036;-85
2022/10/26 00:42:04;;;;;;;9.15;2.08;;;16.30;99.90;;;;;;5093892;28;20040;-79
2022/10/26 00:44:45;;;;;;;4.90;2.22;;;16.20;99.90;;;;;;5079812;28;20098;-84
2022/10/26 00:47:13;;;;;;;10.00;2.10;;;16.30;99.90;;;;;;5094500;28;20075;-86
2022/10/26 00:49:39;;;;;;;7.25;1.52;;;16.30;99.90;;;;;;5075897;28;20118;-85
2022/10/26 00:52:07;;;;;;;4.80;2.20;;;16.40;99.90;;;;;;5074148;28;20051;-79
2022/10/26 00:54:33;;;;;;;6.68;2.47;;;16.40;99.90;;;;;;5095650;28;20055;-80
2022/10/26 00:56:59;;;;;;;4.43;2.00;;;16.40;99.90;;;;;;5095997;28;20056;-80
2022/10/26 00:59:25;;;;;;;5.80;1.40;;;16.50;99.90;;;;;;5094459;28;20028;-80
2022/10/26 01:01:52;;;;;;;4.68;2.05;;;16.60;99.90;;;;;;5093898;28;20050;-80
2022/10/26 01:04:18;;;;;;;8.20;1.55;;;16.60;99.90;;;;;;5085181;28;20094;-79
2022/10/26 01:06:45;;;;;;;3.80;1.65;;;16.60;99.90;;;;;;5095275;28;20518;-80
2022/10/26 01:09:12;;;;;;;9.27;1.90;;;16.40;99.90;;;;;;5095635;28;20047;-80
2022/10/26 01:11:37;;;;;;;8.20;2.10;;;16.20;99.90;;;;;;5094792;28;20036;-81
2022/10/26 01:14:06;;;;;;;7.80;2.50;;;16.10;99.90;;;;;;5092897;28;20373;-80
2022/10/26 01:16:55;;;;;;;6.78;2.00;;;15.80;99.90;;;;;;5080239;28;20056;-80
2022/10/26 01:19:50;;;;;;;7.93;2.35;;;15.70;99.90;;;;;;5074118;28;20032;-85
2022/10/26 01:22:38;;;;;;;9.23;1.77;;;15.60;99.90;;;;;;5075666;28;20471;-81
2022/10/26 01:25:15;;;;;;;6.60;1.50;;;15.60;99.90;;;;;;5091951;28;20032;-80
2022/10/26 01:27:45;;;;;;;6.80;2.08;;;15.70;99.90;;;;;;5095829;28;20036;-83
2022/10/26 01:30:37;;;;;;;9.27;2.37;;;15.90;99.90;;;;;;5095387;28;20027;-84
2022/10/26 01:33:25;;;;;;;14.77;2.97;;;16.00;99.90;;;;;;5093891;28;20629;-80
2022/10/26 01:36:25;;;;;;;9.77;2.03;;;16.20;99.90;;;;;;5055014;28;20037;-80
2022/10/26 01:38:51;;;;;;;6.70;2.08;;;16.20;99.90;;;;;;5061576;28;20046;-84
2022/10/26 01:41:35;;;;;;;5.65;2.05;;;16.30;99.90;;;;;;5074795;28;20036;-83
2022/10/26 01:44:05;;;;;;;5.13;2.17;;;16.40;99.90;;;;;;5081040;28;20027;-81
2022/10/26 01:46:37;;;;;;;8.25;2.25;;;16.50;99.90;;;;;;5084530;28;20063;-80
2022/10/26 01:49:07;;;;;;;7.22;2.17;;;16.20;99.90;;;;;;5073686;28;20037;-81
2022/10/26 01:51:34;;;;;;;5.60;1.80;;;15.90;99.90;;;;;;5073632;28;20085;-80
2022/10/26 01:54:00;;;;;;;5.88;1.83;;;15.80;99.90;;;;;;5078816;28;20035;-81
2022/10/26 01:56:33;;;;;;;5.53;1.88;;;15.90;99.90;;;;;;5093193;28;20056;-80
2022/10/26 01:59:32;;;;;;;7.32;2.08;;;15.80;99.90;;;;;;5093387;28;20032;-80
2022/10/26 02:02:04;;;;;;;3.50;1.90;;;15.90;99.90;;;;;;5080982;28;20036;-81
2022/10/26 02:04:38;;;;;;;6.22;2.20;;;15.70;99.90;;;;;;5083640;28;20542;-80
2022/10/26 02:07:30;;;;;;;4.38;2.17;;;15.70;99.90;;;;;;5094863;28;20113;-80
2022/10/26 02:10:20;;;;;;;4.63;1.58;;;15.70;99.90;;;;;;5091774;28;20032;-79
2022/10/26 02:12:58;;;;;;;5.50;1.77;;;15.60;99.90;;;;;;5094772;28;20065;-83
2022/10/26 02:15:30;;;;;;;4.40;1.60;;;15.50;99.90;;;;;;5075467;28;20040;-80
2022/10/26 02:18:05;;;;;;;4.80;1.80;;;15.50;99.90;;;;;;5090402;28;20040;-79
2022/10/26 02:20:37;;;;;;;4.05;1.58;;;15.60;99.90;;;;;;5094810;28;20520;-83
2022/10/26 02:23:06;;;;;;;7.13;2.03;;;15.60;99.90;;;;;;5093992;28;20044;-79
2022/10/26 02:25:38;;;;;;;9.07;1.85;;;15.60;99.90;;;;;;5077033;28;20063;-82
2022/10/26 02:28:07;;;;;;;3.95;1.80;;;15.70;99.90;;;;;;5072858;28;20028;-79
2022/10/26 02:30:36;;;;;;;3.50;1.30;;;15.70;99.90;;;;;;5056325;28;20502;-80
2022/10/26 02:33:04;;;;;;;9.57;1.90;;;16.00;99.90;;;;;;5074959;28;20039;-81
2022/10/26 02:35:33;;;;;;;8.60;2.55;;;16.00;99.90;;;;;;5092572;28;20140;-80
2022/10/26 02:38:03;;;;;;;5.00;1.55;;;16.00;99.90;;;;;;5094337;28;20052;-81
2022/10/26 02:40:31;;;;;;;6.07;1.80;;;16.00;99.90;;;;;;5094395;28;20050;-80
2022/10/26 02:43:03;;;;;;;4.82;1.65;;;15.90;99.90;;;;;;5094365;28;20226;-80
2022/10/26 02:45:40;;;;;;;5.20;1.58;;;15.80;99.90;;;;;;5077933;28;20040;-82
2022/10/26 02:48:06;;;;;;;8.77;2.47;;;15.80;99.90;;;;;;5082354;28;20062;-80
2022/10/26 02:50:56;;;;;;;4.60;2.17;;;15.90;99.90;;;;;;5073917;28;20496;-83
2022/10/26 02:53:59;;;;;;;6.05;1.95;;;16.00;99.90;;;;;;5073838;28;20134;-82
2022/10/26 02:56:31;;;;;;;8.13;2.15;;;16.10;99.90;;;;;;5053424;28;20662;-80
2022/10/26 02:59:01;;;;;;;4.40;1.48;;;15.90;99.90;;;;;;5061507;28;20044;-80
2022/10/26 03:01:27;;;;;;;8.65;2.00;;;15.90;99.90;;;;;;5073447;28;20094;-81
2022/10/26 03:03:57;;;;;;;8.77;2.78;;;16.00;99.90;;;;;;5076148;28;20075;-79
2022/10/26 03:06:23;;;;;;;9.30;1.80;;;15.90;99.90;;;;;;5086857;28;20037;-80
2022/10/26 03:08:49;;;;;;;5.00;1.92;;;15.80;99.90;;;;;;5079066;28;20040;-82
2022/10/26 03:11:15;;;;;;;9.15;1.98;;;15.80;99.90;;;;;;5080313;28;20044;-80
2022/10/26 03:13:41;;;;;;;6.32;1.63;;;15.80;99.90;;;;;;5073706;28;20568;-79
2022/10/26 03:16:07;;;;;;;8.73;2.53;;;15.80;99.90;;;;;;5073595;28;20056;-79
2022/10/26 03:18:33;;;;;;;10.10;1.90;;;15.70;99.90;;;;;;5072489;28;20039;-80
2022/10/26 03:20:59;;;;;;;5.95;1.88;;;15.70;99.90;;;;;;5072289;28;20127;-80
2022/10/26 03:23:25;;;;;;;8.07;1.63;;;15.60;99.90;;;;;;5070133;28;20048;-80
2022/10/26 03:25:50;;;;;;;6.95;1.95;;;15.60;99.90;;;;;;5069456;28;20127;-80
2022/10/26 03:28:16;;;;;;;7.57;2.03;;;15.70;99.90;;;;;;5071888;28;20048;-80
2022/10/26 03:30:42;;;;;;;5.18;2.47;;;15.50;99.90;;;;;;5077901;28;20073;-80
2022/10/26 03:33:08;;;;;;;8.10;2.17;;;15.20;99.90;;;;;;5093473;28;20040;-80
2022/10/26 03:35:34;;;;;;;8.43;2.35;;;15.10;99.90;;;;;;5096252;28;20152;-82
2022/10/26 03:37:59;;;;;;;7.55;2.17;;;15.40;99.90;;;;;;5096088;28;20052;-81
2022/10/26 03:40:25;;;;;;;5.75;2.20;;;15.50;99.90;;;;;;5084329;28;20020;-80
2022/10/26 03:42:51;;;;;;;7.97;2.45;;;15.40;99.90;;;;;;5077331;28;20049;-81
2022/10/26 03:45:16;;;;;;;8.07;2.40;;;15.50;99.90;;;;;;5084052;28;20050;-80
2022/10/26 03:47:47;;;;;;;5.40;1.90;;;15.70;99.90;;;;;;5097205;28;20079;-79
2022/10/26 03:50:15;;;;;;;14.15;2.20;;;15.70;99.90;;;;;;5091868;28;20036;-79
2022/10/26 03:52:41;;;;;;;9.52;2.65;;;15.60;99.90;;;;;;5080803;28;20044;-82
2022/10/26 03:55:07;;;;;;;10.75;2.15;;;15.70;99.90;;;;;;5079995;28;20047;-80
2022/10/26 03:57:33;;;;;;;10.15;1.90;;;15.70;99.90;;;;;;5075528;28;20531;-79
2022/10/26 03:59:59;;;;;;;5.97;1.70;;;15.60;99.90;;;;;;5077313;28;20033;-80
2022/10/26 04:02:25;;;;;;;7.70;2.15;;;15.60;99.90;;;;;;5075650;28;20040;-79
2022/10/26 04:04:50;;;;;;;7.85;2.40;;;15.60;99.90;;;;;;5077098;28;20066;-82
2022/10/26 04:07:16;;;;;;;6.32;1.88;;;15.60;99.90;;;;;;5075730;28;20068;-79
2022/10/26 04:09:42;;;;;;;6.90;2.10;;;15.40;99.90;;;;;;5076997;28;20045;-82
2022/10/26 04:12:07;;;;;;;5.38;1.60;;;15.40;99.90;;;;;;5076789;28;20037;-80
2022/10/26 04:14:33;;;;;;;9.20;2.17;;;15.50;99.90;;;;;;5076974;28;20127;-80
2022/10/26 04:16:59;;;;;;;5.20;1.85;;;15.50;99.90;;;;;;5075533;28;20037;-80
2022/10/26 04:19:25;;;;;;;9.27;2.08;;;15.50;99.90;;;;;;5075777;28;20081;-79
2022/10/26 04:21:51;;;;;;;6.07;2.05;;;15.70;99.90;;;;;;5075302;28;20500;-81
2022/10/26 04:24:18;;;;;;;7.15;2.20;;;15.50;99.90;;;;;;5075472;28;20032;-79
2022/10/26 04:26:44;;;;;;;7.72;2.15;;;15.40;99.90;;;;;;5075481;28;20056;-79
2022/10/26 04:29:10;;;;;;;9.05;2.00;;;15.40;99.90;;;;;;5076764;28;20036;-80
2022/10/26 04:31:36;;;;;;;7.53;2.08;;;15.40;99.90;;;;;;5076808;28;20040;-79
2022/10/26 04:34:01;;;;;;;4.65;1.92;;;15.40;99.90;;;;;;5076675;28;20130;-80
2022/10/26 04:36:28;;;;;;;11.55;2.67;;;15.40;99.90;;;;;;5076287;28;20060;-80
2022/10/26 04:38:54;;;;;;;6.57;2.08;;;15.40;99.90;;;;;;5076656;28;20043;-79
2022/10/26 04:41:20;;;;;;;10.13;2.38;;;15.40;99.90;;;;;;5075168;28;20392;-79
2022/10/26 04:43:45;;;;;;;9.88;2.08;;;15.40;99.90;;;;;;5076447;28;20045;-80
2022/10/26 04:46:12;;;;;;;4.07;1.60;;;15.30;99.90;;;;;;5076387;28;20044;-80
2022/10/26 04:48:39;;;;;;;9.05;3.45;;;15.20;99.90;;;;;;5058702;28;20072;-81
2022/10/26 04:51:05;;;;;;;6.57;2.38;;;15.00;99.90;;;;;;5076235;28;20052;-79
2022/10/26 04:53:31;;;;;;;5.93;2.75;;;14.90;99.90;;;;;;5076342;28;20040;-80
2022/10/26 04:55:58;;;;;;;7.63;1.70;;;15.10;99.90;;;;;;5074700;28;20087;-79
2022/10/26 04:58:24;;;;;;;6.25;1.98;;;15.20;99.90;;;;;;5075914;28;20040;-80
2022/10/26 05:00:49;;;;;;;4.82;2.03;;;14.90;99.90;;;;;;5076131;28;20575;-80
2022/10/26 05:03:15;;;;;;;5.97;1.88;;;14.90;99.90;;;;;;5074776;28;20074;-79
2022/10/26 05:05:41;;;;;;;8.65;2.17;;;15.00;99.90;;;;;;5074589;28;20044;-82
2022/10/26 05:08:07;;;;;;;8.32;2.22;;;15.00;99.90;;;;;;5076058;28;20040;-79
2022/10/26 05:10:33;;;;;;;7.75;1.90;;;15.00;99.90;;;;;;5075820;28;20036;-79
2022/10/26 05:13:00;;;;;;;5.50;2.13;;;14.90;99.90;;;;;;5075746;28;20384;-80
2022/10/26 05:15:27;;;;;;;10.40;2.90;;;14.90;99.90;;;;;;5075458;28;20036;-79
2022/10/26 05:17:58;;;;;;;7.63;2.17;;;15.00;99.90;;;;;;5075514;28;20032;-79
2022/10/26 05:20:29;;;;;;;4.80;2.10;;;14.90;99.90;;;;;;5075760;28;20043;-79
2022/10/26 05:23:02;;;;;;;5.22;1.90;;;14.90;99.90;;;;;;5074454;28;20036;-79
2022/10/26 05:25:29;;;;;;;9.18;2.55;;;14.90;99.90;;;;;;5074416;28;20029;-79
2022/10/26 05:27:59;;;;;;;6.03;2.67;;;14.90;99.90;;;;;;5075542;28;20049;-79
2022/10/26 05:30:25;;;;;;;13.35;1.88;;;14.80;99.90;;;;;;5075468;28;20043;-78
2022/10/26 05:32:59;;;;;;;6.03;2.25;;;14.90;99.90;;;;;;5073046;28;20128;-78
2022/10/26 05:35:26;;;;;;;9.52;2.95;;;14.80;99.90;;;;;;5075023;28;20036;-78
2022/10/26 05:37:52;;;;;;;13.55;3.17;;;14.80;99.90;;;;;;5073506;28;20037;-79
2022/10/26 05:40:18;;;;;;;9.45;3.00;;;14.90;99.90;;;;;;5074155;28;20059;-80
2022/10/26 05:42:44;;;;;;;8.13;2.65;;;15.10;99.90;;;;;;5075456;28;20070;-79
2022/10/26 05:45:11;;;;;;;6.57;2.05;;;15.10;99.90;;;;;;5075139;28;20466;-79
2022/10/26 05:47:40;;;;;;;8.82;2.30;;;15.00;99.90;;;;;;5073825;28;20123;-79
2022/10/26 05:50:07;;;;;;;11.77;2.72;;;15.10;99.90;;;;;;5075247;28;20079;-78
2022/10/26 05:52:40;;;;;;;13.05;4.10;;;15.20;99.90;;;;;;5073963;28;20043;-79
2022/10/26 05:55:07;;;;;;;5.72;2.50;;;15.30;99.90;;;;;;5074592;28;20146;-79
2022/10/26 05:57:33;;;;;;;7.03;2.40;;;15.40;99.90;;;;;;5074260;28;20048;-79
2022/10/26 05:59:59;;;;;;;8.07;3.00;;;15.40;99.90;;;;;;5073273;28;20127;-81
2022/10/26 06:02:55;;;;;;;10.52;2.63;;;15.50;99.90;;;;;;5073527;28;20123;-79
2022/10/26 06:05:25;;;;;;;5.53;2.10;;;15.50;99.90;;;;;;5073454;28;20043;-79
2022/10/26 06:07:51;;;;;;;13.30;2.80;;;15.40;99.90;;;;;;5074799;28;20596;-80
2022/10/26 06:10:17;;;;;;;8.30;2.85;;;15.40;99.90;;;;;;5074677;28;20036;-79
2022/10/26 06:12:44;;;;;;;11.45;4.07;;;15.20;99.90;;;;;;5073536;28;20051;-79
2022/10/26 06:15:19;;;;;;;8.90;2.63;;;15.10;99.90;;;;;;5074611;28;20031;-81
2022/10/26 06:18:03;;;;;;;15.70;4.10;;;15.30;99.90;;;;;;5074457;28;20047;-79
2022/10/26 06:20:41;;;;;;;12.82;3.00;;;15.20;99.90;;;;;;5073137;28;20037;-79
2022/10/26 06:23:40;;;;;;;10.13;2.40;;;14.90;99.90;;;;;;5073123;28;20044;-79
2022/10/26 06:26:29;;;;;;;15.80;3.50;;;;;;;;;;5073091;28;20045;-79
2022/10/26 06:29:12;;;;;;;12.10;2.65;;;14.80;99.90;;;;;;5070950;28;20089;-79
2022/10/26 06:31:38;;;;;;;16.55;3.50;;;14.80;99.90;;;;;;5073134;28;20140;-79
2022/10/26 06:34:04;;;;;;;12.77;3.47;;;14.90;99.90;;;;;;5072862;28;20094;-79
2022/10/26 06:36:30;;;;;;;13.32;2.92;;;14.90;99.90;;;;;;5072813;28;20048;-80
2022/10/26 06:39:09;;;;;;;8.07;2.97;;;15.10;99.90;;;;;;5074177;28;20041;-79
2022/10/26 06:41:36;;;;;;;11.75;4.05;;;15.40;99.90;;;;;;5072900;28;20123;-80
2022/10/26 06:44:02;;;;;;;10.73;3.65;;;15.50;99.90;;;;;;5066294;28;20070;-79
2022/10/26 06:46:47;;;;;;;9.48;2.83;;;15.50;99.90;;;;;;5052794;28;20392;-80
2022/10/26 06:49:31;;;;;;;11.90;3.70;;;15.40;99.90;;;;;;5054040;28;20072;-81
2022/10/26 06:52:20;;;;;;;11.25;3.75;;;15.50;99.90;;;;;;5052640;28;20170;-79
2022/10/26 06:54:51;;;;;;;7.13;3.42;;;15.70;99.90;;;;;;5053745;28;20170;-79
2022/10/26 06:57:18;;;;;;;;;;;16.00;99.90;;;;;;5052618;28;20088;-79
2022/10/26 06:59:44;;;;;;;6.40;2.63;;;16.10;99.90;;;;;;5054040;28;19916;-80
2022/10/26 07:02:11;;;;;;;13.93;3.50;;;16.30;99.90;;;;;;5053995;28;20033;-80
2022/10/26 07:04:37;;;;;;;8.93;3.03;;;16.30;99.90;;;;;;5054064;28;20041;-79
2022/10/26 07:07:03;;;;;;;6.68;3.40;;;16.40;99.90;;;;;;5052657;28;20040;-79
2022/10/26 07:09:29;;;;;;;11.05;3.30;;;16.40;99.90;;;;;;5055416;28;20039;-80
2022/10/26 07:11:55;;;;;;;11.13;3.17;;;16.50;99.90;;;;;;5061320;28;20395;-80
2022/10/26 07:14:20;;;;;;;10.95;3.25;;;16.60;99.90;;;;;;5053788;28;20047;-81
2022/10/26 07:16:46;;;;;;;16.88;4.82;;;16.80;99.90;;;;;;5053603;28;20369;-78
2022/10/26 07:19:12;;;;;;;12.40;3.45;;;16.80;99.90;;;;;;5053807;28;20040;-77
2022/10/26 07:21:37;;;;;;;6.53;2.60;;;17.10;99.90;;;;;;5053775;28;20072;-77
2022/10/26 07:24:03;;;;;;;13.27;3.22;;;17.10;99.90;;;;;;5052285;28;20565;-77
2022/10/26 07:26:29;;;;;;;11.63;3.25;;;17.50;99.90;;;;;;5053690;28;20094;-79
2022/10/26 07:28:55;;;;;;;7.05;3.22;;;;;;;;;;5053842;28;20093;-76
2022/10/26 07:31:21;;;;;;;13.80;3.50;;;;;;;;;;5053611;28;20041;-77
2022/10/26 07:33:47;;;;;;;9.60;2.78;;;17.90;99.90;;;;;;5053638;28;20055;-75
2022/10/26 07:36:13;;;;;;;11.80;2.80;;;18.30;99.90;;;;;;5053180;28;20049;-76
2022/10/26 07:38:38;;;;;;;8.00;3.03;;;18.60;99.90;;;;;;5053428;28;20404;-78
2022/10/26 07:41:05;;;;;;;13.50;3.10;;;18.90;99.90;;;;;;5059406;28;20072;-77
2022/10/26 07:43:31;;;;;;;6.47;2.47;;;19.20;99.90;;;;;;5057577;28;20067;-77
2022/10/26 07:45:57;;;;;;;10.10;3.00;;;19.30;99.90;;;;;;5053339;28;20500;-76
2022/10/26 07:48:23;;;;;;;7.43;2.78;;;19.40;99.90;;;;;;5053390;28;20033;-77
2022/10/26 07:50:49;;;;;;;7.72;2.70;;;19.40;99.90;;;;;;5053574;28;20036;-78
2022/10/26 07:53:14;;;;;;;5.53;2.28;;;19.50;99.90;;;;;;5053478;28;20039;-76
2022/10/26 07:56:14;;;;;;;8.27;2.63;;;19.60;99.90;;;;;;5052124;28;20044;-79
2022/10/26 07:58:43;;;;;;;10.30;3.53;;;19.80;99.90;;;;;;5063369;28;20070;-77
2022/10/26 08:01:13;;;;;;;8.02;3.20;;;19.90;99.90;;;;;;5053400;28;20079;-78
2022/10/26 08:03:40;;;;;;;5.97;2.60;;;19.90;99.90;;;;;;5068234;28;20044;-78
2022/10/26 08:06:08;;;;;;;9.82;2.65;;;20.10;99.90;;;;;;5071851;28;20444;-81
2022/10/26 08:08:34;;;;;;;10.43;3.15;;;20.10;99.90;;;;;;5071925;28;20029;-78
2022/10/26 08:10:59;;;;;;;8.75;2.45;;;20.30;99.90;;;;;;5071836;28;20074;-78
2022/10/26 08:13:26;;;;;;;7.20;2.65;;;20.40;99.90;;;;;;5067780;28;20079;-77
2022/10/26 08:16:04;;;;;;;11.70;2.63;;;20.50;99.90;;;;;;5061959;28;20053;-78
2022/10/26 08:18:31;;;;;;;7.32;2.60;;;20.70;99.90;;;;;;5051961;28;20033;-79
2022/10/26 08:21:02;;;;;;;11.40;2.78;;;20.80;99.90;;;;;;5054570;28;20404;-77
2022/10/26 08:23:28;;;;;;;10.15;2.85;;;20.80;99.90;;;;;;5056801;28;20052;-77
2022/10/26 08:26:00;;;;;;;11.82;2.80;;;20.80;99.90;;;;;;5056975;28;20021;-79
2022/10/26 08:28:27;;;;;;;12.65;2.70;;;20.90;99.90;;;;;;5055580;28;20053;-77
2022/10/26 08:30:53;;;;;;;13.40;3.88;;;21.10;99.90;;;;;;5056563;28;20044;-77
2022/10/26 08:33:19;;;;;;;9.35;2.40;;;21.00;99.90;;;;;;5055415;28;20083;-79
2022/10/26 08:35:45;;;;;;;7.63;2.97;;;21.00;99.90;;;;;;5056664;28;20060;-77
2022/10/26 08:38:10;;;;;;;8.73;2.90;;;21.20;99.90;;;;;;5055046;28;20052;-78
2022/10/26 08:40:40;;;;;;;12.20;3.17;;;21.20;99.90;;;;;;5055129;28;20036;-77
2022/10/26 08:43:15;;;;;;;7.47;2.53;;;21.40;99.90;;;;;;5056328;28;20040;-78
2022/10/26 08:45:51;;;;;;;5.18;2.65;;;21.10;99.90;;;;;;5056626;28;20068;-77
2022/10/26 08:48:21;;;;;;;8.23;2.35;;;21.10;99.90;;;;;;5055077;28;20071;-78
2022/10/26 08:50:55;;;;;;;8.97;2.73;;;21.20;99.90;;;;;;5056244;28;20036;-78
2022/10/26 08:53:39;;;;;;;18.58;3.22;;;21.50;99.90;;;;;;5056194;28;20324;-77
2022/10/26 08:56:08;;;;;;;5.43;2.05;;;21.40;99.90;;;;;;5054467;28;20041;-76
2022/10/26 08:58:42;;;;;;;8.07;2.65;;;21.40;99.90;;;;;;5054614;28;20056;-78
2022/10/26 09:01:08;;;;;;;10.88;2.63;;;21.30;99.90;;;;;;5055729;28;20079;-77
2022/10/26 09:03:34;;;;;;;11.50;2.00;;;21.30;99.90;;;;;;5054667;28;20037;-78
2022/10/26 09:06:12;;;;;;;11.63;2.28;;;21.40;99.90;;;;;;5055873;28;20051;-78
2022/10/26 09:09:01;;;;;;;9.75;3.42;;;21.40;99.90;;;;;;5055760;28;20045;-78
2022/10/26 09:11:46;;;;;;;11.30;2.60;;;21.70;99.90;;;;;;5055100;28;20037;-78
2022/10/26 09:14:43;;;;;;;6.50;2.30;;;21.60;99.90;;;;;;5055653;28;20131;-77
2022/10/26 09:17:36;;;;;;;8.32;2.45;;;21.70;99.90;;;;;;5045220;28;20111;-76
2022/10/26 09:20:40;;;;;;;5.57;2.08;;;21.70;99.90;;;;;;5055754;28;20049;-77
2022/10/26 09:23:43;;;;;;;6.47;2.15;;;20.90;99.90;;;;;;5033085;28;20119;-79
2022/10/26 09:26:37;;;;;;;7.18;2.38;;;21.30;99.90;;;;;;5055701;28;20048;-78
2022/10/26 09:29:06;;;;;;;8.73;1.85;;;21.70;99.90;;;;;;5056154;28;20051;-79
2022/10/26 09:31:38;;;;;;;7.45;2.40;;;21.90;99.90;;;;;;5055046;28;20036;-77
2022/10/26 09:34:05;;;;;;;7.22;2.30;;;21.90;99.90;;;;;;5055253;28;20041;-78
2022/10/26 09:36:33;;;;;;;5.07;1.85;;;21.80;99.90;;;;;;5055011;28;20045;-77
2022/10/26 09:39:21;;;;;;;6.15;1.88;;;21.90;99.90;;;;;;5055361;28;20121;-78
2022/10/26 09:42:12;;;;;;;5.60;2.42;;;21.90;99.90;;;;;;5055409;28;20088;-77
2022/10/26 09:44:59;;;;;;;8.38;1.92;;;21.80;99.90;;;;;;5055219;28;20036;-77
2022/10/26 09:47:45;;;;;;;7.43;2.05;;;21.40;99.90;;;;;;5067119;28;20569;-78
2022/10/26 09:50:37;;;;;;;9.88;2.13;;;21.90;99.90;;;;;;5073166;28;20050;-77
2022/10/26 09:53:03;;;;;;;6.03;2.10;;;21.90;99.90;;;;;;5062876;28;20071;-75
2022/10/26 09:55:32;;;;;;;10.82;1.98;;;22.60;99.90;;;;;;5058829;28;20086;-75
2022/10/26 09:58:01;;;;;;;8.32;2.00;;;23.00;99.90;;;;;;5074894;28;20055;-77
2022/10/26 10:00:27;;;;;;;4.35;2.25;;;23.50;99.90;;;;;;5063388;28;20040;-77
2022/10/26 10:02:57;;;;;;;8.55;1.90;;;23.70;99.90;;;;;;5055080;28;20041;-77
2022/10/26 10:05:34;;;;;;;6.63;2.00;;;23.80;99.90;;;;;;5054985;28;20048;-76
2022/10/26 10:08:22;;;;;;;8.75;2.67;;;23.70;99.90;;;;;;5054980;28;20041;-76
2022/10/26 10:11:06;;;;;;;6.97;1.95;;;23.70;99.90;;;;;;5054943;28;20037;-77
2022/10/26 10:13:37;;;;;;;4.28;1.98;;;23.40;99.90;;;;;;5054750;28;20029;-77
2022/10/26 10:16:21;;;;;;;34.17;8.07;;;23.10;99.90;;;;;;5073663;28;20089;-77
2022/10/26 10:18:56;;;;;;;14.13;2.83;;;22.70;99.90;;;;;;5067579;28;20508;-75
2022/10/26 10:21:48;;;;;;;5.95;1.75;;;22.40;99.90;;;;;;5053331;28;20048;-77
2022/10/26 10:24:35;;;;;;;5.00;1.80;;;22.40;99.90;;;;;;5054636;28;20439;-78
2022/10/26 10:27:12;;;;;;;54.78;14.00;;;22.50;99.90;;;;;;5054576;28;20397;-78
2022/10/26 10:29:48;;;;;;;5.35;2.28;;;22.80;99.90;;;;;;5054407;28;20055;-79
2022/10/26 10:32:21;;;;;;;6.00;1.70;;;23.20;99.90;;;;;;5073626;28;20052;-76
2022/10/26 10:34:51;;;;;;;3.30;1.30;;;23.20;99.90;;;;;;5071956;28;20068;-79
2022/10/26 10:37:41;;;;;;;3.05;1.10;;;23.00;99.90;;;;;;5072488;28;20044;-79
2022/10/26 10:40:22;;;;;;;4.97;1.70;;;22.70;99.90;;;;;;5072975;28;20028;-76
2022/10/26 10:42:50;;;;;;;4.07;1.17;;;22.70;99.90;;;;;;5071988;28;20120;-80
2022/10/26 10:45:50;;;;;;;4.03;1.48;;;22.80;99.90;;;;;;5072010;28;20036;-75
2022/10/26 10:48:27;;;;;;;3.03;1.20;;;22.80;99.90;;;;;;5070734;28;20479;-78
2022/10/26 10:51:09;;;;;;;7.70;1.50;;;22.90;99.90;;;;;;5071248;28;20047;-80
2022/10/26 10:53:45;;;;;;;8.23;1.73;;;23.20;99.90;;;;;;5070149;28;20094;-80
2022/10/26 10:56:26;;;;;;;3.72;1.73;;;23.20;99.90;;;;;;5072062;28;20066;-80
2022/10/26 10:58:55;;;;;;;3.67;1.60;;;23.30;99.90;;;;;;5071756;28;20242;-81
2022/10/26 11:01:24;;;;;;;7.05;1.25;;;23.40;99.90;;;;;;5071542;28;20034;-81
2022/10/26 11:04:19;;;;;;;2.08;1.00;;;23.20;99.90;;;;;;5071036;28;20127;-81
2022/10/26 11:06:47;;;;;;;5.85;1.23;;;22.90;99.90;;;;;;5071135;28;20041;-77
2022/10/26 11:09:20;;;;;;;4.05;1.25;;;23.10;99.90;;;;;;5071803;28;20040;-77
2022/10/26 11:12:12;;;;;;;3.15;1.02;;;23.30;99.10;;;;;;5073082;28;20131;-78
2022/10/26 11:14:42;;;;;;;2.58;0.90;;;22.90;99.90;;;;;;5073512;28;20044;-80
2022/10/26 11:18:02;;;;;;;8.80;1.37;;;22.80;97.90;;;;;;5073470;28;20058;-79
2022/10/26 11:20:31;;;;;;;1.38;0.75;;;22.70;97.70;;;;;;5064153;28;20048;-80
2022/10/26 11:23:21;;;;;;;3.33;1.00;;;22.80;99.00;;;;;;5069843;28;20527;-76
2022/10/26 11:26:02;;;;;;;7.50;1.25;;;22.70;96.20;;;;;;5072080;28;20036;-76
2022/10/26 11:28:47;;;;;;;4.88;1.20;;;22.80;97.60;;;;;;5073257;28;20060;-79
2022/10/26 11:31:22;;;;;;;1.40;0.70;;;23.20;98.70;;;;;;5071660;28;20476;-81
2022/10/26 11:34:20;;;;;;;2.25;0.90;;;22.80;97.40;;;;;;5071650;28;20089;-77
2022/10/26 11:36:52;;;;;;;2.20;0.85;;;22.60;97.50;;;;;;5073261;28;20845;-78
2022/10/26 11:39:44;;;;;;;4.00;0.68;;;22.80;97.60;;;;;;5073339;28;20044;-81
2022/10/26 11:42:51;;;;;;;4.32;0.90;;;23.30;96.90;;;;;;5072719;28;20481;-80
2022/10/26 11:45:29;;;;;;;3.25;1.00;;;23.10;97.10;;;;;;5068822;28;20048;-81
2022/10/26 11:48:45;;;;;;;4.38;1.10;;;22.80;96.80;;;;;;5069756;28;20040;-81
2022/10/26 11:51:20;;;;;;;4.78;0.80;;;23.20;97.60;;;;;;5065534;28;20131;-81
2022/10/26 11:53:48;;;;;;;3.35;0.50;;;23.30;96.20;;;;;;5070752;28;20115;-81
2022/10/26 11:56:26;;;;;;;3.63;0.90;;;23.20;95.40;;;;;;5074041;28;20127;-81
2022/10/26 11:58:52;;;;;;;2.38;0.88;;;23.10;94.00;;;;;;5073741;28;20072;-81
2022/10/26 12:01:19;;;;;;;5.82;1.08;;;22.80;94.70;;;;;;5074589;28;20044;-81
2022/10/26 12:03:50;;;;;;;2.40;1.70;;;22.60;94.50;;;;;;5074849;28;20365;-82
2022/10/26 12:06:26;;;;;;;3.88;0.80;;;22.60;96.20;;;;;;5076482;28;20052;-78
2022/10/26 12:09:11;;;;;;;3.17;0.90;;;23.20;96.40;;;;;;5076648;28;20036;-81
2022/10/26 12:11:55;;;;;;;4.05;0.98;;;23.40;97.00;;;;;;5076655;28;20079;-76
2022/10/26 12:14:49;;;;;;;2.17;0.82;;;23.10;95.70;;;;;;5076780;28;20408;-80
2022/10/26 12:17:38;;;;;;;4.25;1.23;;;23.20;97.90;;;;;;5076691;28;20079;-76
2022/10/26 12:20:15;;;;;;;4.65;1.60;;;23.40;99.30;;;;;;5076500;28;20033;-77
2022/10/26 12:22:42;;;;;;;11.85;1.98;;;23.00;98.60;;;;;;5076248;28;20048;-77
2022/10/26 12:25:14;;;;;;;7.57;2.17;;;22.90;99.90;;;;;;5076787;28;20085;-78
2022/10/26 12:27:39;;;;;;;2.80;1.45;;;22.70;99.90;;;;;;5075525;28;20525;-78
2022/10/26 12:30:23;;;;;;;5.55;2.13;;;22.40;99.90;;;;;;5076790;28;20130;-79
2022/10/26 12:32:52;;;;;;;5.78;1.48;;;22.20;99.90;;;;;;5076564;28;20503;-78
2022/10/26 12:35:33;;;;;;;5.30;2.00;;;;;;;;;;5075403;28;20068;-77
2022/10/26 12:37:59;;;;;;;;;;;21.80;99.90;;;;;;5077050;28;20048;-77
2022/10/26 12:40:38;;;;;;;10.55;1.50;;;21.60;99.90;;;;;;5076243;28;20023;-76
2022/10/26 12:43:12;;;;;;;6.07;2.60;;;21.40;99.90;;;;;;5074307;28;20087;-78
2022/10/26 12:45:39;;;;;;;6.78;1.92;;;21.40;99.90;;;;;;5076200;28;20041;-77
2022/10/26 12:48:25;;;;;;;5.43;1.85;;;21.20;99.90;;;;;;5076090;28;20043;-77
2022/10/26 12:50:51;;;;;;;8.20;2.28;;;21.40;99.90;;;;;;5075079;28;20119;-77
2022/10/26 12:53:21;;;;;;;6.82;1.98;;;21.70;99.90;;;;;;5075013;28;20491;-77
2022/10/26 12:55:49;;;;;;;7.28;1.95;;;21.80;99.90;;;;;;5076030;28;20043;-77
2022/10/26 12:58:33;;;;;;;7.13;1.95;;;22.00;99.90;;;;;;5075889;28;20051;-77
2022/10/26 13:00:58;;;;;;;5.03;1.70;;;22.20;99.90;;;;;;5076049;28;20036;-78
2022/10/26 13:03:27;;;;;;;11.57;3.20;;;22.00;99.90;;;;;;5076026;28;20102;-77
2022/10/26 13:06:20;;;;;;;7.07;1.92;;;22.10;99.90;;;;;;5074847;28;20039;-77
2022/10/26 13:08:57;;;;;;;7.63;1.60;;;22.20;99.90;;;;;;5075352;28;20446;-77
2022/10/26 13:11:37;;;;;;;8.68;2.00;;;22.30;99.90;;;;;;5075989;28;20040;-79
2022/10/26 13:14:06;;;;;;;10.63;1.67;;;22.30;99.90;;;;;;5076035;28;20632;-77